BAW783C ENGM-EGLL
Flight info
| Callsign | BAW783C |
|---|---|
| Flight time | 1h 49m |
| Altitude | 36000 |
| Route | VIPPA1C VIPPA DCT LINVI L39 GOLUM DCT UPGAS DCT TIPAN DCT WECOW DCT BINBO DCT AKOKO N866 BUKUT P7 BARMI BARMI1H |
| Aircraft | A320/M-SDE3FGIJ1KRWXY/SB1 |
Departure
| Time | 2026-05-04 15:17 |
|---|---|
| Airport | Oslo-Gardermoen International Airport (ENGM) |
Arrival
| Time | 2026-05-04 17:07 |
|---|---|
| Airport | London Heathrow Airport (EGLL) |
| Time | Latitude | Longitude | Altitude | Speed | Heading |
|---|---|---|---|---|---|
| 2026-05-04 14:35 | 60.19258 | 11.11018 | 685 ft | 0 kts | 16° |
| 2026-05-04 14:36 | 60.19247 | 11.11012 | 691 ft | 0 kts | 16° |
| 2026-05-04 14:40 | 60.19246 | 11.11012 | 691 ft | 0 kts | 16° |
| 2026-05-04 14:42 | 60.19251 | 11.10999 | 684 ft | 0 kts | 16° |
| 2026-05-04 14:46 | 60.19251 | 11.10998 | 691 ft | 0 kts | 16° |
| 2026-05-04 14:52 | 60.19250 | 11.11013 | 691 ft | 0 kts | 15° |
| 2026-05-04 15:01 | 60.19249 | 11.11013 | 691 ft | 0 kts | 15° |
| 2026-05-04 15:08 | 60.19244 | 11.11010 | 684 ft | 4 kts | 18° |
| 2026-05-04 15:09 | 60.19223 | 11.10997 | 688 ft | 2 kts | 359° |
| 2026-05-04 15:09 | 60.19201 | 11.10990 | 688 ft | 4 kts | 46° |
| 2026-05-04 15:09 | 60.19193 | 11.10947 | 687 ft | 4 kts | 97° |
| 2026-05-04 15:10 | 60.19195 | 11.10928 | 687 ft | 0 kts | 105° |
| 2026-05-04 15:12 | 60.19192 | 11.10948 | 688 ft | 6 kts | 107° |
| 2026-05-04 15:12 | 60.19176 | 11.11047 | 687 ft | 8 kts | 107° |
| 2026-05-04 15:12 | 60.19157 | 11.11173 | 686 ft | 10 kts | 105° |
| 2026-05-04 15:12 | 60.19179 | 11.11313 | 686 ft | 14 kts | 22° |
| 2026-05-04 15:13 | 60.19276 | 11.11367 | 685 ft | 15 kts | 15° |
| 2026-05-04 15:13 | 60.19382 | 11.11427 | 685 ft | 16 kts | 16° |
| 2026-05-04 15:13 | 60.19496 | 11.11494 | 688 ft | 18 kts | 17° |
| 2026-05-04 15:13 | 60.19616 | 11.11562 | 689 ft | 19 kts | 15° |
| 2026-05-04 15:14 | 60.19745 | 11.11637 | 689 ft | 20 kts | 17° |
| 2026-05-04 15:14 | 60.19881 | 11.11717 | 689 ft | 21 kts | 15° |
| 2026-05-04 15:14 | 60.19995 | 11.11781 | 690 ft | 2 kts | 15° |
| 2026-05-04 15:14 | 60.20016 | 11.11792 | 690 ft | 4 kts | 15° |
| 2026-05-04 15:15 | 60.20049 | 11.11811 | 687 ft | 6 kts | 15° |
| 2026-05-04 15:15 | 60.20076 | 11.11866 | 685 ft | 6 kts | 89° |
| 2026-05-04 15:15 | 60.20058 | 11.11947 | 688 ft | 7 kts | 113° |
| 2026-05-04 15:16 | 60.20026 | 11.12174 | 689 ft | 9 kts | 138° |
| 2026-05-04 15:16 | 60.19959 | 11.12157 | 687 ft | 12 kts | 195° |
| 2026-05-04 15:16 | 60.19119 | 11.11672 | 685 ft | 117 kts | 195° |
| 2026-05-04 15:17 | 60.18202 | 11.11133 | 734 ft | 152 kts | 201° |
| 2026-05-04 15:17 | 60.16221 | 11.09983 | 1943 ft | 150 kts | 204° |
| 2026-05-04 15:17 | 60.15153 | 11.09364 | 2269 ft | 170 kts | 204° |
| 2026-05-04 15:18 | 60.13943 | 11.08659 | 2496 ft | 193 kts | 202° |
| 2026-05-04 15:18 | 60.12535 | 11.08095 | 2738 ft | 221 kts | 192° |
| 2026-05-04 15:18 | 60.10924 | 11.07726 | 3112 ft | 244 kts | 192° |
| 2026-05-04 15:19 | 60.07410 | 11.06971 | 4638 ft | 259 kts | 191° |
| 2026-05-04 15:19 | 60.05618 | 11.06462 | 5506 ft | 259 kts | 201° |
| 2026-05-04 15:19 | 60.02215 | 11.04052 | 7065 ft | 261 kts | 205° |
| 2026-05-04 15:20 | 60.00501 | 11.02812 | 7934 ft | 262 kts | 206° |
| 2026-05-04 15:20 | 59.98772 | 11.01556 | 8690 ft | 267 kts | 205° |
| 2026-05-04 15:20 | 59.97010 | 11.00274 | 9486 ft | 271 kts | 205° |
| 2026-05-04 15:20 | 59.95241 | 10.98989 | 10078 ft | 281 kts | 205° |
| 2026-05-04 15:21 | 59.93306 | 10.97576 | 10291 ft | 304 kts | 205° |
| 2026-05-04 15:21 | 59.91280 | 10.96099 | 10532 ft | 322 kts | 205° |
| 2026-05-04 15:21 | 59.86988 | 10.93016 | 11761 ft | 332 kts | 205° |
| 2026-05-04 15:22 | 59.84887 | 10.91161 | 12428 ft | 329 kts | 218° |
| 2026-05-04 15:22 | 59.83014 | 10.88558 | 13119 ft | 329 kts | 221° |
| 2026-05-04 15:22 | 59.79266 | 10.83218 | 14420 ft | 332 kts | 221° |
| 2026-05-04 15:23 | 59.77386 | 10.80539 | 15095 ft | 332 kts | 222° |
| 2026-05-04 15:23 | 59.75504 | 10.77862 | 15769 ft | 332 kts | 223° |
| 2026-05-04 15:23 | 59.73629 | 10.75196 | 16440 ft | 331 kts | 223° |
| 2026-05-04 15:23 | 59.71754 | 10.72537 | 17096 ft | 331 kts | 224° |
| 2026-05-04 15:24 | 59.68018 | 10.67243 | 18328 ft | 333 kts | 224° |
| 2026-05-04 15:24 | 59.64216 | 10.61874 | 19366 ft | 338 kts | 224° |
| 2026-05-04 15:25 | 59.62290 | 10.59160 | 19864 ft | 341 kts | 225° |
| 2026-05-04 15:25 | 59.60348 | 10.56427 | 20333 ft | 345 kts | 224° |
| 2026-05-04 15:25 | 59.58380 | 10.53667 | 20791 ft | 348 kts | 224° |
| 2026-05-04 15:26 | 59.54401 | 10.48107 | 21660 ft | 353 kts | 225° |
| 2026-05-04 15:26 | 59.52392 | 10.45297 | 22081 ft | 356 kts | 225° |
| 2026-05-04 15:26 | 59.48313 | 10.39618 | 22946 ft | 361 kts | 225° |
| 2026-05-04 15:27 | 59.46248 | 10.36748 | 23278 ft | 365 kts | 225° |
| 2026-05-04 15:27 | 59.42052 | 10.30920 | 23916 ft | 373 kts | 224° |
| 2026-05-04 15:28 | 59.37813 | 10.25055 | 24615 ft | 378 kts | 224° |
| 2026-05-04 15:28 | 59.35657 | 10.22073 | 24952 ft | 380 kts | 224° |
| 2026-05-04 15:28 | 59.31300 | 10.16077 | 25646 ft | 385 kts | 224° |
| 2026-05-04 15:29 | 59.29100 | 10.13060 | 25986 ft | 387 kts | 224° |
| 2026-05-04 15:30 | 59.20149 | 10.00836 | 27217 ft | 398 kts | 223° |
| 2026-05-04 15:30 | 59.13251 | 9.91450 | 28155 ft | 407 kts | 223° |
| 2026-05-04 15:31 | 59.08590 | 9.85149 | 29040 ft | 407 kts | 223° |
| 2026-05-04 15:31 | 59.06268 | 9.82017 | 29534 ft | 406 kts | 223° |
| 2026-05-04 15:32 | 58.99338 | 9.72685 | 30796 ft | 404 kts | 222° |
| 2026-05-04 15:32 | 58.94732 | 9.66508 | 31602 ft | 401 kts | 221° |
| 2026-05-04 15:33 | 58.90137 | 9.60365 | 32425 ft | 400 kts | 221° |
| 2026-05-04 15:34 | 58.83291 | 9.51260 | 33752 ft | 395 kts | 221° |
| 2026-05-04 15:34 | 58.81028 | 9.48268 | 34122 ft | 394 kts | 221° |
| 2026-05-04 15:34 | 58.76508 | 9.42300 | 34728 ft | 394 kts | 221° |
| 2026-05-04 15:35 | 58.71988 | 9.36328 | 35269 ft | 394 kts | 221° |
| 2026-05-04 15:35 | 58.69755 | 9.33381 | 35535 ft | 395 kts | 221° |
| 2026-05-04 15:35 | 58.67485 | 9.30395 | 35744 ft | 395 kts | 220° |
| 2026-05-04 15:36 | 58.62932 | 9.24433 | 36230 ft | 397 kts | 220° |
| 2026-05-04 15:36 | 58.60652 | 9.21450 | 36459 ft | 397 kts | 220° |
| 2026-05-04 15:36 | 58.58367 | 9.18462 | 36706 ft | 397 kts | 220° |
| 2026-05-04 15:37 | 58.56084 | 9.15484 | 36942 ft | 397 kts | 220° |
| 2026-05-04 15:37 | 58.53796 | 9.12509 | 37175 ft | 397 kts | 220° |
| 2026-05-04 15:37 | 58.51505 | 9.09534 | 37404 ft | 398 kts | 220° |
| 2026-05-04 15:37 | 58.49215 | 9.06568 | 37629 ft | 398 kts | 220° |
| 2026-05-04 15:38 | 58.46911 | 9.03590 | 37796 ft | 399 kts | 220° |
| 2026-05-04 15:38 | 58.44604 | 9.00609 | 37826 ft | 402 kts | 220° |
| 2026-05-04 15:38 | 58.39989 | 8.94645 | 37833 ft | 403 kts | 220° |
| 2026-05-04 15:39 | 58.35343 | 8.88663 | 37838 ft | 403 kts | 220° |
| 2026-05-04 15:40 | 58.28347 | 8.79722 | 37852 ft | 404 kts | 219° |
| 2026-05-04 15:40 | 58.23683 | 8.73782 | 37854 ft | 404 kts | 220° |
| 2026-05-04 15:41 | 58.19005 | 8.67833 | 37857 ft | 404 kts | 219° |
| 2026-05-04 15:41 | 58.14328 | 8.61910 | 37842 ft | 405 kts | 219° |
| 2026-05-04 15:42 | 58.09636 | 8.55987 | 37856 ft | 405 kts | 219° |
| 2026-05-04 15:42 | 58.04943 | 8.50080 | 37878 ft | 406 kts | 219° |
| 2026-05-04 15:43 | 58.00275 | 8.44219 | 37881 ft | 406 kts | 219° |
| 2026-05-04 15:43 | 57.95571 | 8.38337 | 37893 ft | 406 kts | 219° |
| 2026-05-04 15:44 | 57.90868 | 8.32464 | 37852 ft | 406 kts | 219° |
| 2026-05-04 15:44 | 57.86143 | 8.26577 | 37880 ft | 407 kts | 219° |
| 2026-05-04 15:45 | 57.81402 | 8.20719 | 37892 ft | 408 kts | 219° |
| 2026-05-04 15:45 | 57.76649 | 8.14866 | 37923 ft | 409 kts | 219° |
| 2026-05-04 15:46 | 57.71894 | 8.09016 | 37921 ft | 409 kts | 219° |
| 2026-05-04 15:46 | 57.67136 | 8.03172 | 37896 ft | 409 kts | 219° |
| 2026-05-04 15:47 | 57.62394 | 7.97373 | 37912 ft | 410 kts | 218° |
| 2026-05-04 15:47 | 57.57604 | 7.91535 | 37917 ft | 411 kts | 218° |
| 2026-05-04 15:48 | 57.52807 | 7.85698 | 37934 ft | 412 kts | 218° |
| 2026-05-04 15:48 | 57.45594 | 7.76969 | 37951 ft | 412 kts | 218° |
| 2026-05-04 15:49 | 57.40783 | 7.71173 | 37921 ft | 412 kts | 218° |
| 2026-05-04 15:49 | 57.35998 | 7.65418 | 37943 ft | 413 kts | 218° |
| 2026-05-04 15:50 | 57.31168 | 7.59628 | 37945 ft | 414 kts | 218° |
| 2026-05-04 15:50 | 57.26325 | 7.53854 | 37964 ft | 414 kts | 217° |
| 2026-05-04 15:51 | 57.21477 | 7.48088 | 37971 ft | 415 kts | 217° |
| 2026-05-04 15:51 | 57.16618 | 7.42314 | 37962 ft | 415 kts | 217° |
| 2026-05-04 15:52 | 57.11759 | 7.36566 | 37949 ft | 416 kts | 217° |
| 2026-05-04 15:52 | 57.06878 | 7.30806 | 37952 ft | 417 kts | 217° |
| 2026-05-04 15:53 | 57.02015 | 7.25090 | 37982 ft | 418 kts | 217° |
| 2026-05-04 15:53 | 56.97160 | 7.19240 | 37985 ft | 417 kts | 219° |
| 2026-05-04 15:54 | 56.92471 | 7.13011 | 37991 ft | 416 kts | 220° |
| 2026-05-04 15:54 | 56.88596 | 7.07777 | 37967 ft | 417 kts | 220° |
| 2026-05-04 15:55 | 56.83887 | 7.01551 | 37982 ft | 418 kts | 219° |
| 2026-05-04 15:55 | 56.79150 | 6.95385 | 37989 ft | 418 kts | 219° |
| 2026-05-04 15:56 | 56.74392 | 6.89240 | 38000 ft | 419 kts | 219° |
| 2026-05-04 15:56 | 56.69642 | 6.83108 | 38003 ft | 419 kts | 219° |
| 2026-05-04 15:57 | 56.64913 | 6.77001 | 37977 ft | 419 kts | 219° |
| 2026-05-04 15:57 | 56.60150 | 6.70852 | 37985 ft | 420 kts | 218° |
| 2026-05-04 15:58 | 56.55374 | 6.64720 | 37995 ft | 421 kts | 218° |
| 2026-05-04 15:58 | 56.50584 | 6.58604 | 38006 ft | 421 kts | 218° |
| 2026-05-04 15:59 | 56.45813 | 6.52529 | 38008 ft | 422 kts | 218° |
| 2026-05-04 15:59 | 56.41008 | 6.46428 | 38018 ft | 422 kts | 218° |
| 2026-05-04 16:00 | 56.36195 | 6.40340 | 38003 ft | 423 kts | 218° |
| 2026-05-04 16:00 | 56.31372 | 6.34253 | 38015 ft | 423 kts | 218° |
| 2026-05-04 16:01 | 56.26550 | 6.28166 | 38016 ft | 424 kts | 218° |
| 2026-05-04 16:01 | 56.21713 | 6.22099 | 38021 ft | 424 kts | 218° |
| 2026-05-04 16:02 | 56.16854 | 6.16029 | 37992 ft | 427 kts | 218° |
| 2026-05-04 16:03 | 56.09496 | 6.06860 | 37987 ft | 431 kts | 217° |
| 2026-05-04 16:03 | 56.04581 | 6.00746 | 37997 ft | 433 kts | 217° |
| 2026-05-04 16:04 | 55.99615 | 5.94605 | 38007 ft | 434 kts | 217° |
| 2026-05-04 16:04 | 55.92137 | 5.85445 | 38028 ft | 435 kts | 217° |
| 2026-05-04 16:05 | 55.87150 | 5.79320 | 38034 ft | 435 kts | 217° |
| 2026-05-04 16:06 | 55.79662 | 5.70135 | 38049 ft | 436 kts | 217° |
| 2026-05-04 16:07 | 55.69695 | 5.58008 | 38046 ft | 436 kts | 217° |
| 2026-05-04 16:08 | 55.59663 | 5.45900 | 38038 ft | 437 kts | 216° |
| 2026-05-04 16:09 | 55.47095 | 5.30828 | 38049 ft | 437 kts | 216° |
| 2026-05-04 16:10 | 55.37406 | 5.18061 | 38045 ft | 436 kts | 221° |
| 2026-05-04 16:11 | 55.27949 | 5.04707 | 38052 ft | 436 kts | 220° |
| 2026-05-04 16:12 | 55.12233 | 4.88476 | 38041 ft | 439 kts | 210° |
| 2026-05-04 16:13 | 55.01462 | 4.78342 | 38057 ft | 440 kts | 210° |
| 2026-05-04 16:14 | 54.90628 | 4.68256 | 38055 ft | 440 kts | 210° |
| 2026-05-04 16:16 | 54.77118 | 4.55753 | 38070 ft | 440 kts | 210° |
| 2026-05-04 16:17 | 54.63616 | 4.43366 | 38068 ft | 440 kts | 210° |
| 2026-05-04 16:18 | 54.52800 | 4.33485 | 38066 ft | 439 kts | 210° |
| 2026-05-04 16:19 | 54.39306 | 4.21250 | 38054 ft | 440 kts | 209° |
| 2026-05-04 16:20 | 54.25758 | 4.09061 | 38061 ft | 440 kts | 209° |
| 2026-05-04 16:22 | 54.12188 | 3.96967 | 38060 ft | 439 kts | 209° |
| 2026-05-04 16:23 | 53.95954 | 3.82583 | 38063 ft | 439 kts | 208° |
| 2026-05-04 16:25 | 53.79717 | 3.68339 | 38068 ft | 438 kts | 208° |
| 2026-05-04 16:26 | 53.60718 | 3.51820 | 38070 ft | 439 kts | 208° |
| 2026-05-04 16:28 | 53.47124 | 3.40102 | 38071 ft | 439 kts | 208° |
| 2026-05-04 16:29 | 53.28103 | 3.23856 | 38061 ft | 439 kts | 208° |
| 2026-05-04 16:31 | 53.14526 | 3.12373 | 38061 ft | 438 kts | 208° |
| 2026-05-04 16:32 | 52.98187 | 2.98650 | 38046 ft | 439 kts | 207° |
| 2026-05-04 16:33 | 52.87294 | 2.89537 | 38050 ft | 438 kts | 207° |
| 2026-05-04 16:34 | 52.81885 | 2.85054 | 37948 ft | 436 kts | 207° |
| 2026-05-04 16:34 | 52.79186 | 2.82824 | 37661 ft | 431 kts | 207° |
| 2026-05-04 16:35 | 52.71185 | 2.76203 | 36281 ft | 429 kts | 207° |
| 2026-05-04 16:35 | 52.63097 | 2.69530 | 34145 ft | 435 kts | 208° |
| 2026-05-04 16:36 | 52.60406 | 2.67324 | 33214 ft | 429 kts | 208° |
| 2026-05-04 16:36 | 52.55012 | 2.62907 | 31490 ft | 431 kts | 207° |
| 2026-05-04 16:37 | 52.49735 | 2.58596 | 30419 ft | 422 kts | 207° |
| 2026-05-04 16:37 | 52.47120 | 2.56468 | 29847 ft | 417 kts | 207° |
| 2026-05-04 16:37 | 52.42045 | 2.52337 | 29290 ft | 401 kts | 207° |
| 2026-05-04 16:38 | 52.37059 | 2.48288 | 28732 ft | 398 kts | 207° |
| 2026-05-04 16:39 | 52.29639 | 2.42283 | 27920 ft | 398 kts | 207° |
| 2026-05-04 16:39 | 52.24676 | 2.38285 | 27374 ft | 396 kts | 207° |
| 2026-05-04 16:40 | 52.19757 | 2.34324 | 26852 ft | 393 kts | 207° |
| 2026-05-04 16:40 | 52.14856 | 2.30391 | 26330 ft | 391 kts | 207° |
| 2026-05-04 16:41 | 52.10222 | 2.25872 | 25825 ft | 388 kts | 221° |
| 2026-05-04 16:41 | 52.04781 | 2.16224 | 25102 ft | 384 kts | 229° |
| 2026-05-04 16:42 | 51.99516 | 2.06494 | 25010 ft | 384 kts | 228° |
| 2026-05-04 16:43 | 51.95980 | 1.99980 | 25007 ft | 385 kts | 228° |
| 2026-05-04 16:43 | 51.92440 | 1.93461 | 25013 ft | 385 kts | 228° |
| 2026-05-04 16:43 | 51.90671 | 1.90212 | 25007 ft | 385 kts | 228° |
| 2026-05-04 16:44 | 51.83564 | 1.77203 | 25008 ft | 385 kts | 228° |
| 2026-05-04 16:45 | 51.80000 | 1.70724 | 25008 ft | 385 kts | 228° |
| 2026-05-04 16:46 | 51.75299 | 1.60320 | 25005 ft | 388 kts | 246° |
| 2026-05-04 16:46 | 51.74140 | 1.51730 | 23760 ft | 397 kts | 263° |
| 2026-05-04 16:47 | 51.73709 | 1.44391 | 22714 ft | 393 kts | 262° |
| 2026-05-04 16:47 | 51.73144 | 1.35662 | 21535 ft | 388 kts | 262° |
| 2026-05-04 16:48 | 51.72272 | 1.22717 | 19794 ft | 385 kts | 262° |
| 2026-05-04 16:48 | 51.71984 | 1.18425 | 19206 ft | 384 kts | 262° |
| 2026-05-04 16:49 | 51.71409 | 1.09882 | 18024 ft | 382 kts | 262° |
| 2026-05-04 16:49 | 51.70830 | 1.01422 | 16869 ft | 376 kts | 262° |
| 2026-05-04 16:50 | 51.70256 | 0.93123 | 15740 ft | 369 kts | 262° |
| 2026-05-04 16:50 | 51.69690 | 0.84957 | 14623 ft | 364 kts | 263° |
| 2026-05-04 16:51 | 51.69137 | 0.77022 | 13427 ft | 351 kts | 263° |
| 2026-05-04 16:51 | 51.68858 | 0.73117 | 12856 ft | 349 kts | 263° |
| 2026-05-04 16:51 | 51.68308 | 0.65402 | 11769 ft | 344 kts | 263° |
| 2026-05-04 16:52 | 51.67767 | 0.57894 | 11063 ft | 329 kts | 263° |
| 2026-05-04 16:52 | 51.67504 | 0.54308 | 10937 ft | 316 kts | 263° |
| 2026-05-04 16:53 | 51.67008 | 0.47531 | 10686 ft | 295 kts | 263° |
| 2026-05-04 16:53 | 51.66312 | 0.37980 | 9357 ft | 280 kts | 262° |
| 2026-05-04 16:54 | 51.66083 | 0.34890 | 8841 ft | 277 kts | 262° |
| 2026-05-04 16:55 | 51.65167 | 0.22656 | 7162 ft | 268 kts | 262° |
| 2026-05-04 16:55 | 51.64750 | 0.17097 | 7027 ft | 239 kts | 262° |
| 2026-05-04 16:56 | 51.64732 | 0.11807 | 7025 ft | 237 kts | 272° |
| 2026-05-04 16:56 | 51.65028 | 0.03924 | 7026 ft | 234 kts | 272° |
| 2026-05-04 16:57 | 51.65123 | 0.01271 | 7025 ft | 235 kts | 272° |
| 2026-05-04 16:57 | 51.65306 | -0.03936 | 7047 ft | 238 kts | 272° |
| 2026-05-04 16:58 | 51.65586 | -0.11918 | 7054 ft | 239 kts | 272° |
| 2026-05-04 16:58 | 51.65667 | -0.14601 | 7056 ft | 239 kts | 267° |
| 2026-05-04 16:59 | 51.64252 | -0.19117 | 7057 ft | 235 kts | 214° |
| 2026-05-04 17:00 | 51.58040 | -0.21186 | 6044 ft | 235 kts | 160° |
| 2026-05-04 17:00 | 51.54690 | -0.15536 | 6012 ft | 241 kts | 126° |
| 2026-05-04 17:01 | 51.52780 | -0.11345 | 5760 ft | 217 kts | 126° |
| 2026-05-04 17:01 | 51.50700 | -0.08450 | 5341 ft | 194 kts | 168° |
| 2026-05-04 17:02 | 51.48096 | -0.09148 | 4627 ft | 201 kts | 213° |
| 2026-05-04 17:02 | 51.46567 | -0.12901 | 3861 ft | 210 kts | 264° |
| 2026-05-04 17:03 | 51.46526 | -0.15228 | 3585 ft | 209 kts | 272° |
| 2026-05-04 17:03 | 51.46531 | -0.17563 | 3297 ft | 210 kts | 272° |
| 2026-05-04 17:03 | 51.46530 | -0.22302 | 2720 ft | 213 kts | 272° |
| 2026-05-04 17:04 | 51.46525 | -0.26928 | 2163 ft | 204 kts | 272° |
| 2026-05-04 17:04 | 51.46518 | -0.31233 | 1642 ft | 182 kts | 272° |
| 2026-05-04 17:05 | 51.46511 | -0.34937 | 1194 ft | 153 kts | 273° |
| 2026-05-04 17:05 | 51.46505 | -0.38269 | 767 ft | 148 kts | 272° |
| 2026-05-04 17:06 | 51.46497 | -0.41565 | 360 ft | 147 kts | 274° |
| 2026-05-04 17:06 | 51.46494 | -0.43199 | 174 ft | 149 kts | 271° |
| 2026-05-04 17:07 | 51.46489 | -0.45670 | 86 ft | 33 kts | 269° |
| 2026-05-04 17:07 | 51.46521 | -0.45809 | 88 ft | 16 kts | 317° |
| 2026-05-04 17:07 | 51.46603 | -0.45906 | 87 ft | 6 kts | 329° |
| 2026-05-04 17:07 | 51.46619 | -0.45921 | 87 ft | 0 kts | 329° |
| 2026-05-04 17:08 | 51.46629 | -0.45931 | 87 ft | 4 kts | 329° |
| 2026-05-04 17:08 | 51.46775 | -0.45983 | 90 ft | 14 kts | 0° |
| 2026-05-04 17:08 | 51.46858 | -0.46018 | 91 ft | 10 kts | 326° |
| 2026-05-04 17:09 | 51.46897 | -0.46044 | 86 ft | 5 kts | 25° |
| 2026-05-04 17:09 | 51.46925 | -0.45990 | 88 ft | 6 kts | 54° |
| 2026-05-04 17:09 | 51.46933 | -0.45973 | 88 ft | 0 kts | 55° |
| 2026-05-04 17:10 | 51.46933 | -0.45972 | 88 ft | 0 kts | 55° |